This is the latest recevied weather packets stored in our database for station/object KN6KDD. If no packets are shown the sender has not sent any weather packets the latest 10 day(s).
| Time | Temp. | Humidity | Pressure | Rain* | Wind** | Luminosity | Snow |
|---|---|---|---|---|---|---|---|
| 1777519553 | 12.78° C | 81% | 1356.4 hPa | 0 mm | - | 0 W/m² | - |
| 1777519249 | 13.33° C | 80% | 1356.4 hPa | 0 mm | - | 0 W/m² | - |
| 1777518945 | 13.33° C | 79% | 1356.1 hPa | 0 mm | - | 0 W/m² | - |
| 1777518642 | 13.33° C | 78% | 1356.2 hPa | 0 mm | - | 1 W/m² | - |
| 1777518338 | 13.33° C | 79% | 1356 hPa | 0 mm | - | 2 W/m² | - |
| 1777518034 | 13.89° C | 78% | 1355.8 hPa | 0 mm | - | 4 W/m² | - |
| 1777517730 | 13.89° C | 78% | 1356 hPa | 0 mm | - | 7 W/m² | - |
| 1777517427 | 13.89° C | 78% | 1356 hPa | 0 mm | - | 10 W/m² | - |
| 1777517126 | 13.89° C | 76% | 1355.8 hPa | 0 mm | - | 13 W/m² | - |
| 1777516823 | 14.44° C | 73% | 1355.8 hPa | 0 mm | - | 17 W/m² | - |
| 1777516519 | 15° C | 72% | 1355.7 hPa | 0 mm | - | 20 W/m² | - |
| 1777516215 | 15° C | 72% | 1355.8 hPa | 0 mm | - | 24 W/m² | - |
| 1777515912 | 15.56° C | 69% | 1355.7 hPa | 0 mm | - | 27 W/m² | - |
| 1777515609 | 15.56° C | 68% | 1355.7 hPa | 0 mm | - | 30 W/m² | - |
| 1777515306 | 16.67° C | 66% | 1356 hPa | 0 mm | - | 34 W/m² | - |
| 1777515001 | 16.67° C | 65% | 1355.8 hPa | 0 mm | - | 39 W/m² | - |
| 1777514698 | 16.67° C | 66% | 1355.8 hPa | 0 mm | - | 43 W/m² | - |
| 1777514395 | 16.67° C | 65% | 1355.8 hPa | 0 mm | - | 41 W/m² | - |
| 1777514092 | 16.67° C | 66% | 1355.7 hPa | 0 mm | - | 47 W/m² | - |
| 1777513789 | 17.78° C | 62% | 1355.8 hPa | 0 mm | - | 52 W/m² | - |
| 1777513486 | 18.89° C | 57% | 1355.8 hPa | 0 mm | - | 53 W/m² | - |
| 1777513183 | 18.89° C | 57% | 1356 hPa | 0 mm | - | 113 W/m² | - |
| 1777512878 | 19.44° C | 56% | 1356.1 hPa | 0 mm | - | 127 W/m² | - |
| 1777512575 | 19.44° C | 56% | 1356 hPa | 0 mm | - | 140 W/m² | - |
| 1777512272 | 19.44° C | 56% | 1355.8 hPa | 0 mm | - | 156 W/m² | - |
* Rain latest hour (hover to see other rain measurements)
** Current wind speed in m/s (hover to see current wind gust speed)